createdAt,value
2022-11-20T00:00:11.056Z,7.51
2022-11-20T00:01:11.059Z,7.50
2022-11-20T00:02:11.122Z,7.49
2022-11-20T00:03:11.057Z,7.49
2022-11-20T00:04:11.053Z,7.50
2022-11-20T00:05:11.066Z,7.53
2022-11-20T00:06:12.059Z,7.54
2022-11-20T00:07:11.125Z,7.50
2022-11-20T00:08:11.063Z,7.52
2022-11-20T00:09:12.057Z,7.49
2022-11-20T00:10:11.054Z,7.51
2022-11-20T00:11:15.552Z,7.51
2022-11-20T00:12:13.365Z,7.48
2022-11-20T00:13:11.054Z,7.45
2022-11-20T00:14:12.062Z,7.47
2022-11-20T00:15:11.067Z,7.42
2022-11-20T00:16:11.055Z,7.43
2022-11-20T00:17:11.061Z,7.43
2022-11-20T00:18:11.064Z,7.45
2022-11-20T00:19:11.056Z,7.46
2022-11-20T00:20:11.060Z,7.46
2022-11-20T00:21:13.066Z,7.49
2022-11-20T00:22:11.060Z,7.46
2022-11-20T00:23:11.054Z,7.50
2022-11-20T00:24:13.057Z,7.45
2022-11-20T00:25:11.059Z,7.46
2022-11-20T00:26:11.057Z,7.38
2022-11-20T00:27:11.057Z,7.41
2022-11-20T00:28:11.062Z,7.37
2022-11-20T00:29:11.060Z,7.34
2022-11-20T00:30:12.376Z,7.34
2022-11-20T00:31:14.067Z,7.38
2022-11-20T00:32:11.063Z,7.43
2022-11-20T00:33:11.058Z,7.40
2022-11-20T00:34:11.067Z,7.44
2022-11-20T00:35:11.059Z,7.39
2022-11-20T00:36:15.062Z,7.35
2022-11-20T00:37:11.065Z,7.40
2022-11-20T00:38:11.060Z,7.42
2022-11-20T00:39:11.068Z,7.44
2022-11-20T00:40:11.060Z,7.49
2022-11-20T00:41:11.069Z,7.54
2022-11-20T00:42:11.059Z,7.58
2022-11-20T00:43:11.065Z,7.64
2022-11-20T00:44:11.067Z,7.65
2022-11-20T00:45:11.059Z,7.67
2022-11-20T00:46:11.063Z,7.71
2022-11-20T00:47:11.068Z,7.74
2022-11-20T00:48:11.060Z,7.76
2022-11-20T00:49:11.057Z,7.78
2022-11-20T00:50:11.064Z,7.81
2022-11-20T00:51:11.063Z,7.83
2022-11-20T00:52:11.056Z,7.84
2022-11-20T00:53:11.069Z,7.86
2022-11-20T00:54:11.062Z,7.82
2022-11-20T00:55:11.062Z,7.81
2022-11-20T00:56:12.064Z,7.84
2022-11-20T00:57:11.062Z,7.83
2022-11-20T00:58:14.308Z,7.80
2022-11-20T00:59:11.061Z,7.73
2022-11-20T01:00:11.063Z,7.70
2022-11-20T01:01:17.170Z,7.64
2022-11-20T01:02:11.063Z,7.67
2022-11-20T01:03:11.064Z,7.68
2022-11-20T01:04:11.062Z,7.67
2022-11-20T01:05:11.062Z,7.64
2022-11-20T01:06:15.073Z,7.64
2022-11-20T01:07:11.130Z,7.59
2022-11-20T01:08:11.065Z,7.55
2022-11-20T01:09:14.070Z,7.53
2022-11-20T01:10:11.070Z,7.56
2022-11-20T01:11:14.060Z,7.53
2022-11-20T01:12:11.062Z,7.45
2022-11-20T01:13:15.065Z,7.41
2022-11-20T01:14:15.058Z,7.45
2022-11-20T01:15:11.065Z,7.43
2022-11-20T01:16:19.077Z,7.40
2022-11-20T01:17:11.065Z,7.39
2022-11-20T01:18:11.062Z,7.43
2022-11-20T01:19:17.299Z,7.44
2022-11-20T01:20:11.063Z,7.33
2022-11-20T01:21:11.061Z,7.35
2022-11-20T01:22:11.066Z,7.31
2022-11-20T01:23:11.073Z,7.33
2022-11-20T01:24:14.063Z,7.34
2022-11-20T01:25:11.063Z,7.33
2022-11-20T01:26:11.065Z,7.27
2022-11-20T01:27:11.060Z,7.26
2022-11-20T01:28:11.064Z,7.22
2022-11-20T01:29:15.072Z,7.26
2022-11-20T01:30:11.069Z,7.28
2022-11-20T01:31:17.065Z,7.23
2022-11-20T01:32:11.062Z,7.24
2022-11-20T01:33:11.064Z,7.25
2022-11-20T01:34:13.065Z,7.25
2022-11-20T01:35:11.067Z,7.23
2022-11-20T01:36:11.063Z,7.30
2022-11-20T01:37:11.061Z,7.33
2022-11-20T01:38:11.068Z,7.24
2022-11-20T01:39:21.412Z,7.24
2022-11-20T01:40:11.065Z,7.28
2022-11-20T01:41:11.070Z,7.22
2022-11-20T01:42:15.087Z,7.23
2022-11-20T01:43:19.065Z,7.26
2022-11-20T01:44:12.071Z,7.22
2022-11-20T01:45:19.066Z,7.25
2022-11-20T01:46:15.068Z,7.28
2022-11-20T01:47:14.068Z,7.18
2022-11-20T01:48:11.062Z,7.16
2022-11-20T01:49:20.513Z,7.18
2022-11-20T01:50:19.081Z,7.23
2022-11-20T01:51:19.067Z,7.21
2022-11-20T01:52:16.066Z,7.23
2022-11-20T01:53:13.067Z,7.24
2022-11-20T01:54:13.071Z,7.20
2022-11-20T01:55:13.066Z,7.21
2022-11-20T01:56:12.065Z,7.25
2022-11-20T01:57:12.065Z,7.21
2022-11-20T01:58:11.066Z,7.19
2022-11-20T01:59:11.081Z,7.18
2022-11-20T02:00:14.065Z,7.20
2022-11-20T02:01:11.136Z,7.26
2022-11-20T02:02:11.065Z,7.27
2022-11-20T02:03:13.066Z,7.21
2022-11-20T02:04:11.074Z,7.21
2022-11-20T02:05:19.067Z,7.18
2022-11-20T02:06:17.069Z,7.18
2022-11-20T02:07:11.083Z,7.18
2022-11-20T02:08:11.069Z,7.13
2022-11-20T02:09:11.065Z,7.11
2022-11-20T02:10:11.065Z,7.13
2022-11-20T02:11:11.068Z,7.18
2022-11-20T02:12:11.065Z,7.13
2022-11-20T02:13:15.066Z,7.14
2022-11-20T02:14:11.074Z,7.16
2022-11-20T02:15:11.068Z,7.16
2022-11-20T02:16:17.071Z,7.16
2022-11-20T02:17:11.071Z,7.19
2022-11-20T02:18:11.069Z,7.15
2022-11-20T02:19:16.069Z,7.10
2022-11-20T02:20:11.067Z,7.11
2022-11-20T02:21:16.070Z,7.09
2022-11-20T02:22:20.064Z,7.14
2022-11-20T02:23:19.117Z,7.10
2022-11-20T02:24:13.071Z,7.18
2022-11-20T02:25:11.070Z,7.12
2022-11-20T02:26:15.067Z,7.12
2022-11-20T02:27:14.071Z,7.14
2022-11-20T02:28:11.068Z,7.14
2022-11-20T02:29:11.070Z,7.13
2022-11-20T02:30:12.070Z,7.14
2022-11-20T02:31:11.071Z,7.12
2022-11-20T02:32:19.068Z,7.10
2022-11-20T02:33:11.066Z,7.12
2022-11-20T02:34:11.077Z,7.15
2022-11-20T02:35:19.071Z,7.22
2022-11-20T02:36:12.068Z,7.24
2022-11-20T02:37:11.069Z,7.25
2022-11-20T02:38:11.070Z,7.21
2022-11-20T02:39:12.068Z,7.18
2022-11-20T02:40:11.066Z,7.13
2022-11-20T02:41:11.071Z,7.11
2022-11-20T02:42:11.069Z,7.14
2022-11-20T02:43:11.070Z,7.09
2022-11-20T02:44:11.070Z,7.11
2022-11-20T02:45:11.072Z,7.11
2022-11-20T02:46:11.070Z,7.13
2022-11-20T02:47:11.071Z,7.16
2022-11-20T02:48:11.057Z,7.18
2022-11-20T02:49:11.059Z,7.17
2022-11-20T02:50:11.061Z,7.16
2022-11-20T02:51:11.059Z,7.16
2022-11-20T02:52:11.059Z,7.17
2022-11-20T02:53:11.068Z,7.20
2022-11-20T02:54:11.056Z,7.23
2022-11-20T02:55:11.060Z,7.24
2022-11-20T02:56:11.068Z,7.23
2022-11-20T02:57:11.057Z,7.23
2022-11-20T02:58:11.062Z,7.27
2022-11-20T02:59:11.067Z,7.27
2022-11-20T03:00:11.057Z,7.31
2022-11-20T03:01:11.120Z,7.35
2022-11-20T03:02:11.068Z,7.41
2022-11-20T03:03:11.061Z,7.36
2022-11-20T03:04:11.061Z,7.39
2022-11-20T03:05:11.069Z,7.40
2022-11-20T03:06:11.058Z,7.43
2022-11-20T03:07:11.158Z,7.41
2022-11-20T03:08:11.067Z,7.33
2022-11-20T03:09:11.059Z,7.30
2022-11-20T03:10:11.059Z,7.28
2022-11-20T03:11:11.062Z,7.31
2022-11-20T03:12:11.060Z,7.27
2022-11-20T03:13:11.060Z,7.29
2022-11-20T03:14:11.062Z,7.28
2022-11-20T03:15:11.061Z,7.28
2022-11-20T03:16:11.061Z,7.27
2022-11-20T03:17:11.068Z,7.28
2022-11-20T03:18:11.061Z,7.17
2022-11-20T03:19:11.062Z,7.18
2022-11-20T03:20:11.062Z,7.20
2022-11-20T03:21:11.064Z,7.21
2022-11-20T03:22:11.062Z,7.18
2022-11-20T03:23:11.061Z,7.24
2022-11-20T03:24:11.064Z,7.25
2022-11-20T03:25:11.064Z,7.22
2022-11-20T03:26:18.074Z,7.26
2022-11-20T03:27:11.101Z,7.22
2022-11-20T03:28:11.063Z,7.27
2022-11-20T03:29:11.079Z,7.28
2022-11-20T03:30:11.063Z,7.23
2022-11-20T03:31:11.062Z,7.22
2022-11-20T03:32:11.063Z,7.19
2022-11-20T03:33:11.060Z,7.18
2022-11-20T03:34:11.061Z,7.18
2022-11-20T03:35:11.074Z,7.20
2022-11-20T03:36:11.063Z,7.17
2022-11-20T03:37:11.064Z,7.16
2022-11-20T03:38:11.071Z,7.22
2022-11-20T03:39:11.075Z,7.17
2022-11-20T03:40:11.057Z,7.18
2022-11-20T03:41:18.072Z,7.20
2022-11-20T03:42:15.065Z,7.23
2022-11-20T03:43:12.061Z,7.22
2022-11-20T03:44:11.065Z,7.16
2022-11-20T03:45:11.064Z,7.18
2022-11-20T03:46:11.062Z,7.21
2022-11-20T03:47:11.064Z,7.23
2022-11-20T03:48:11.066Z,7.26
2022-11-20T03:49:11.061Z,7.22
2022-11-20T03:50:11.064Z,7.20
2022-11-20T03:51:11.066Z,7.23
2022-11-20T03:52:11.061Z,7.24
2022-11-20T03:53:11.063Z,7.20
2022-11-20T03:54:11.067Z,7.24
2022-11-20T03:55:11.069Z,7.22
2022-11-20T03:56:11.064Z,7.26
2022-11-20T03:57:11.066Z,7.25
2022-11-20T03:58:11.061Z,7.24
2022-11-20T03:59:12.066Z,7.23
2022-11-20T04:00:11.068Z,7.27
2022-11-20T04:01:15.109Z,7.31
2022-11-20T04:02:11.128Z,7.29
2022-11-20T04:03:11.073Z,7.28
2022-11-20T04:04:11.062Z,7.32
2022-11-20T04:05:11.067Z,7.35
2022-11-20T04:06:15.067Z,7.34
2022-11-20T04:07:11.149Z,7.34
2022-11-20T04:08:11.066Z,7.33
2022-11-20T04:09:11.073Z,7.33
2022-11-20T04:10:11.062Z,7.30
2022-11-20T04:11:17.065Z,7.32
2022-11-20T04:12:11.074Z,7.31
2022-11-20T04:13:11.063Z,7.29
2022-11-20T04:14:15.067Z,7.28
2022-11-20T04:15:11.069Z,7.27
2022-11-20T04:16:11.067Z,7.22
2022-11-20T04:17:11.062Z,7.26
2022-11-20T04:18:11.069Z,7.29
2022-11-20T04:19:12.067Z,7.27
2022-11-20T04:20:11.062Z,7.29
2022-11-20T04:21:11.068Z,7.29
2022-11-20T04:22:11.066Z,7.28
2022-11-20T04:23:11.063Z,7.32
2022-11-20T04:24:11.069Z,7.27
2022-11-20T04:25:11.067Z,7.30
2022-11-20T04:26:11.063Z,7.34
2022-11-20T04:27:11.070Z,7.35
2022-11-20T04:28:11.068Z,7.34
2022-11-20T04:29:12.063Z,7.37
2022-11-20T04:30:11.066Z,7.36
2022-11-20T04:31:18.083Z,7.38
2022-11-20T04:32:11.064Z,7.35
2022-11-20T04:33:11.068Z,7.33
2022-11-20T04:34:12.069Z,7.31
2022-11-20T04:35:11.065Z,7.35
2022-11-20T04:36:20.067Z,7.39
2022-11-20T04:37:11.078Z,7.39
2022-11-20T04:38:11.070Z,7.34
2022-11-20T04:39:14.069Z,7.37
2022-11-20T04:40:11.075Z,7.36
2022-11-20T04:41:15.064Z,7.38
2022-11-20T04:42:15.069Z,7.40
2022-11-20T04:43:11.071Z,7.44
2022-11-20T04:44:11.072Z,7.44
2022-11-20T04:45:11.064Z,7.47
2022-11-20T04:46:11.071Z,7.47
2022-11-20T04:47:11.068Z,7.51
2022-11-20T04:48:11.064Z,7.53
2022-11-20T04:49:11.079Z,7.52
2022-11-20T04:50:11.129Z,7.52
2022-11-20T04:51:11.072Z,7.54
2022-11-20T04:52:11.075Z,7.57
2022-11-20T04:53:11.069Z,7.56
2022-11-20T04:54:11.069Z,7.55
2022-11-20T04:55:11.077Z,7.56
2022-11-20T04:56:11.070Z,7.58
2022-11-20T04:57:14.380Z,7.56
2022-11-20T04:58:11.068Z,7.61
2022-11-20T04:59:11.069Z,7.64
2022-11-20T05:00:11.069Z,7.67
2022-11-20T05:01:14.270Z,7.65
2022-11-20T05:02:11.071Z,7.70
2022-11-20T05:03:11.068Z,7.68
2022-11-20T05:04:11.071Z,7.73
2022-11-20T05:05:11.078Z,7.76
2022-11-20T05:06:11.079Z,7.78
2022-11-20T05:07:11.120Z,7.80
2022-11-20T05:08:11.084Z,7.79
2022-11-20T05:09:11.067Z,7.82
2022-11-20T05:10:11.072Z,7.83
2022-11-20T05:11:14.076Z,7.82
2022-11-20T05:12:11.073Z,7.85
2022-11-20T05:13:11.067Z,7.87
2022-11-20T05:14:11.072Z,7.91
2022-11-20T05:15:11.072Z,7.89
2022-11-20T05:16:14.073Z,7.89
2022-11-20T05:17:12.068Z,7.87
2022-11-20T05:18:11.072Z,7.87
2022-11-20T05:19:11.069Z,7.88
2022-11-20T05:20:11.080Z,7.90
2022-11-20T05:21:11.071Z,7.86
2022-11-20T05:22:11.070Z,7.86
2022-11-20T05:23:11.070Z,7.87
2022-11-20T05:24:11.073Z,7.81
2022-11-20T05:25:11.071Z,7.79
2022-11-20T05:26:13.074Z,7.81
2022-11-20T05:27:11.071Z,7.76
2022-11-20T05:28:11.070Z,7.70
2022-11-20T05:29:12.074Z,7.69
2022-11-20T05:30:11.072Z,7.70
2022-11-20T05:31:14.076Z,7.68
2022-11-20T05:32:12.075Z,7.69
2022-11-20T05:33:11.079Z,7.67
2022-11-20T05:34:11.075Z,7.68
2022-11-20T05:35:11.072Z,7.66
2022-11-20T05:36:11.079Z,7.65
2022-11-20T05:37:11.069Z,7.60
2022-11-20T05:38:11.073Z,7.58
2022-11-20T05:39:11.078Z,7.61
2022-11-20T05:40:11.074Z,7.61
2022-11-20T05:41:14.071Z,7.62
2022-11-20T05:42:15.075Z,7.61
2022-11-20T05:43:11.074Z,7.61
2022-11-20T05:44:12.094Z,7.59
2022-11-20T05:45:11.072Z,7.56
2022-11-20T05:46:11.076Z,7.56
2022-11-20T05:47:11.072Z,7.55
2022-11-20T05:48:11.065Z,7.53
2022-11-20T05:49:11.067Z,7.53
2022-11-20T05:50:11.066Z,7.49
2022-11-20T05:51:11.066Z,7.49
2022-11-20T05:52:11.068Z,7.45
2022-11-20T05:53:11.065Z,7.41
2022-11-20T05:54:11.065Z,7.42
2022-11-20T05:55:11.065Z,7.42
2022-11-20T05:56:12.067Z,7.39
2022-11-20T05:57:11.065Z,7.37
2022-11-20T05:58:11.071Z,7.35
2022-11-20T05:59:11.067Z,7.37
2022-11-20T06:00:11.067Z,7.36
2022-11-20T06:01:15.069Z,7.36
2022-11-20T06:02:11.065Z,7.34
2022-11-20T06:03:11.066Z,7.36
2022-11-20T06:04:11.075Z,7.32
2022-11-20T06:05:11.064Z,7.31
2022-11-20T06:06:11.069Z,7.30
2022-11-20T06:07:11.113Z,7.28
2022-11-20T06:08:11.067Z,7.27
2022-11-20T06:09:11.071Z,7.22
2022-11-20T06:10:11.078Z,7.24
2022-11-20T06:11:11.067Z,7.25
2022-11-20T06:12:11.062Z,7.27
2022-11-20T06:13:11.068Z,7.28
2022-11-20T06:14:11.070Z,7.27
2022-11-20T06:15:11.066Z,7.29
2022-11-20T06:16:11.086Z,7.29
2022-11-20T06:17:11.070Z,7.29
2022-11-20T06:18:11.068Z,7.30
2022-11-20T06:19:11.069Z,7.31
2022-11-20T06:20:11.070Z,7.29
2022-11-20T06:21:11.066Z,7.28
2022-11-20T06:22:11.067Z,7.27
2022-11-20T06:23:11.071Z,7.27
2022-11-20T06:24:11.066Z,7.26
2022-11-20T06:25:11.073Z,7.21
2022-11-20T06:26:11.076Z,7.20
2022-11-20T06:27:11.067Z,7.20
2022-11-20T06:28:11.069Z,7.19
2022-11-20T06:29:11.076Z,7.18
2022-11-20T06:30:11.070Z,7.19
2022-11-20T06:31:11.072Z,7.21
2022-11-20T06:32:11.077Z,7.17
2022-11-20T06:33:11.066Z,7.15
2022-11-20T06:34:11.068Z,7.14
2022-11-20T06:35:11.077Z,7.12
2022-11-20T06:36:11.268Z,7.12
2022-11-20T06:37:11.071Z,7.12
2022-11-20T06:38:11.076Z,7.12
2022-11-20T06:39:11.069Z,7.10
2022-11-20T06:40:11.071Z,7.11
2022-11-20T06:41:12.078Z,7.07
2022-11-20T06:42:11.071Z,7.07
2022-11-20T06:43:11.073Z,7.08
2022-11-20T06:44:11.077Z,7.05
2022-11-20T06:45:11.075Z,7.07
2022-11-20T06:46:11.074Z,7.09
2022-11-20T06:47:11.078Z,7.09
2022-11-20T06:48:11.069Z,7.08
2022-11-20T06:49:11.070Z,7.07
2022-11-20T06:50:11.079Z,7.07
2022-11-20T06:51:11.073Z,7.06
2022-11-20T06:52:11.069Z,7.07
2022-11-20T06:53:11.079Z,7.08
2022-11-20T06:54:11.071Z,7.11
2022-11-20T06:55:11.071Z,7.11
2022-11-20T06:56:11.077Z,7.11
2022-11-20T06:57:11.071Z,7.10
2022-11-20T06:58:11.069Z,7.10
2022-11-20T06:59:11.074Z,7.10
2022-11-20T07:00:11.072Z,7.09
2022-11-20T07:01:12.130Z,7.10
2022-11-20T07:02:13.078Z,7.10
2022-11-20T07:03:11.072Z,7.09
2022-11-20T07:04:11.071Z,7.10
2022-11-20T07:05:11.072Z,7.10
2022-11-20T07:06:11.076Z,7.10
2022-11-20T07:07:11.243Z,7.09
2022-11-20T07:08:11.071Z,7.09
2022-11-20T07:09:12.854Z,7.09
2022-11-20T07:10:11.101Z,7.08
2022-11-20T07:11:12.072Z,7.06
2022-11-20T07:12:11.075Z,7.08
2022-11-20T07:13:11.073Z,7.08
2022-11-20T07:14:11.071Z,7.09
2022-11-20T07:15:11.081Z,7.10
2022-11-20T07:16:11.071Z,7.09
2022-11-20T07:17:11.073Z,7.08
2022-11-20T07:18:11.084Z,7.08
2022-11-20T07:19:11.070Z,7.09
2022-11-20T07:20:11.074Z,7.07
2022-11-20T07:21:12.081Z,7.05
2022-11-20T07:22:11.072Z,7.02
2022-11-20T07:23:11.072Z,7.04
2022-11-20T07:24:11.077Z,7.05
2022-11-20T07:25:11.075Z,7.00
2022-11-20T07:26:11.070Z,7.01
2022-11-20T07:27:11.077Z,7.00
2022-11-20T07:28:11.075Z,6.99
2022-11-20T07:29:11.073Z,7.02
2022-11-20T07:30:11.073Z,7.01
2022-11-20T07:31:15.957Z,7.02
2022-11-20T07:32:13.771Z,7.01
2022-11-20T07:33:11.070Z,7.02
2022-11-20T07:34:11.078Z,7.03
2022-11-20T07:35:11.076Z,7.03
2022-11-20T07:36:11.070Z,7.02
2022-11-20T07:37:11.079Z,7.02
2022-11-20T07:38:11.074Z,7.01
2022-11-20T07:39:11.071Z,6.97
2022-11-20T07:40:11.079Z,6.99
2022-11-20T07:41:11.077Z,6.99
2022-11-20T07:42:11.073Z,6.98
2022-11-20T07:43:11.075Z,6.98
2022-11-20T07:44:11.074Z,6.96
2022-11-20T07:45:11.080Z,6.97
2022-11-20T07:46:11.076Z,6.98
2022-11-20T07:47:11.082Z,6.99
2022-11-20T07:48:11.075Z,6.96
2022-11-20T07:49:11.076Z,6.98
2022-11-20T07:50:11.076Z,6.98
2022-11-20T07:51:11.074Z,7.00
2022-11-20T07:52:11.075Z,6.99
2022-11-20T07:53:11.083Z,6.99
2022-11-20T07:54:11.075Z,6.99
2022-11-20T07:55:11.077Z,7.00
2022-11-20T07:56:11.083Z,6.97
2022-11-20T07:57:11.075Z,6.97
2022-11-20T07:58:11.076Z,6.95
2022-11-20T07:59:11.082Z,6.94
2022-11-20T08:00:11.080Z,6.93
2022-11-20T08:01:11.150Z,6.94
2022-11-20T08:02:12.078Z,6.96
2022-11-20T08:03:11.076Z,6.97
2022-11-20T08:04:11.076Z,6.97
2022-11-20T08:05:13.078Z,6.98
2022-11-20T08:06:11.080Z,6.96
2022-11-20T08:07:11.088Z,6.94
2022-11-20T08:08:11.080Z,6.94
2022-11-20T08:09:11.084Z,6.93
2022-11-20T08:10:11.076Z,6.95
2022-11-20T08:11:15.079Z,6.96
2022-11-20T08:12:19.082Z,6.94
2022-11-20T08:13:15.085Z,6.96
2022-11-20T08:14:15.077Z,6.96
2022-11-20T08:15:13.274Z,6.99
2022-11-20T08:16:11.080Z,7.00
2022-11-20T08:17:11.088Z,7.02
2022-11-20T08:18:30.461Z,7.05
2022-11-20T08:19:13.057Z,7.07
2022-11-20T08:20:11.080Z,7.08
2022-11-20T08:21:11.143Z,7.10
2022-11-20T08:22:11.075Z,7.12
2022-11-20T08:23:11.081Z,7.14
2022-11-20T08:24:11.078Z,7.17
2022-11-20T08:25:11.077Z,7.20
2022-11-20T08:26:11.079Z,7.21
2022-11-20T08:27:11.084Z,7.22
2022-11-20T08:28:20.353Z,7.22
2022-11-20T08:29:13.054Z,7.22
2022-11-20T08:30:11.086Z,7.22
2022-11-20T08:31:11.076Z,7.22
2022-11-20T08:32:11.079Z,7.24
2022-11-20T08:33:11.087Z,7.26
2022-11-20T08:34:14.938Z,7.25
2022-11-20T08:35:13.074Z,7.25
2022-11-20T08:36:11.077Z,7.27
2022-11-20T08:37:11.079Z,7.28
2022-11-20T08:38:11.079Z,7.29
2022-11-20T08:39:12.083Z,7.29
2022-11-20T08:40:18.326Z,7.30
2022-11-20T08:41:17.060Z,7.29
2022-11-20T08:42:11.076Z,7.30
2022-11-20T08:43:11.087Z,7.29
2022-11-20T08:44:11.083Z,7.31
2022-11-20T08:45:11.078Z,7.31
2022-11-20T08:46:11.082Z,7.31
2022-11-20T08:47:11.082Z,7.30
2022-11-20T08:48:11.055Z,7.31
2022-11-20T08:49:11.063Z,7.32
2022-11-20T08:50:11.060Z,7.34
2022-11-20T08:51:11.055Z,7.36
2022-11-20T08:52:11.062Z,7.36
2022-11-20T08:53:11.060Z,7.35
2022-11-20T08:54:11.059Z,7.35
2022-11-20T08:55:11.060Z,7.36
2022-11-20T08:56:11.058Z,7.34
2022-11-20T08:57:11.061Z,7.35
2022-11-20T08:58:11.058Z,7.35
2022-11-20T08:59:27.021Z,7.35
2022-11-20T09:00:13.376Z,7.36
2022-11-20T09:01:11.068Z,7.37
2022-11-20T09:02:11.068Z,7.34
2022-11-20T09:03:11.061Z,7.32
2022-11-20T09:04:11.061Z,7.35
2022-11-20T09:05:11.067Z,7.38
2022-11-20T09:06:11.061Z,7.42
2022-11-20T09:07:11.119Z,7.43
2022-11-20T09:08:11.062Z,7.46
2022-11-20T09:09:11.061Z,7.47
2022-11-20T09:10:23.576Z,7.47
2022-11-20T09:11:13.041Z,7.50
2022-11-20T09:12:11.061Z,7.54
2022-11-20T09:13:11.058Z,7.57
2022-11-20T09:14:11.065Z,7.60
2022-11-20T09:15:11.063Z,7.62
2022-11-20T09:16:11.056Z,7.64
2022-11-20T09:17:12.065Z,7.66
2022-11-20T09:18:11.061Z,7.67
2022-11-20T09:19:34.568Z,7.69
2022-11-20T09:20:13.046Z,7.68
2022-11-20T09:21:14.126Z,7.73
2022-11-20T09:22:11.062Z,7.75
2022-11-20T09:23:11.057Z,7.80
2022-11-20T09:24:11.068Z,7.83
2022-11-20T09:25:11.062Z,7.89
2022-11-20T09:26:14.069Z,7.95
2022-11-20T09:27:11.060Z,7.98
2022-11-20T09:28:11.064Z,8.00
2022-11-20T09:29:11.059Z,7.99
2022-11-20T09:30:11.062Z,8.00
2022-11-20T09:31:15.065Z,8.05
2022-11-20T09:32:11.061Z,8.06
2022-11-20T09:33:11.065Z,8.12
2022-11-20T09:34:11.071Z,8.18
2022-11-20T09:35:11.063Z,8.20
2022-11-20T09:36:11.060Z,8.22
2022-11-20T09:37:11.064Z,8.27
2022-11-20T09:38:11.063Z,8.32
2022-11-20T09:39:11.059Z,8.38
2022-11-20T09:40:19.070Z,8.41
2022-11-20T09:41:19.063Z,8.42
2022-11-20T09:42:19.060Z,8.46
2022-11-20T09:43:19.064Z,8.49
2022-11-20T09:44:21.066Z,8.54
2022-11-20T09:45:19.075Z,8.58
2022-11-20T09:46:17.090Z,8.64
2022-11-20T09:47:19.063Z,8.66
2022-11-20T09:48:19.071Z,8.72
2022-11-20T09:49:19.845Z,8.73
2022-11-20T09:50:19.116Z,8.72
2022-11-20T09:51:19.062Z,8.78
2022-11-20T09:52:19.073Z,8.80
2022-11-20T09:53:19.066Z,8.82
2022-11-20T09:54:18.072Z,8.85
2022-11-20T09:55:13.065Z,8.89
2022-11-20T09:56:11.061Z,8.93
2022-11-20T09:57:15.063Z,8.96
2022-11-20T09:58:19.064Z,8.99
2022-11-20T09:59:18.062Z,9.02
2022-11-20T10:00:13.065Z,9.02
2022-11-20T10:01:17.103Z,9.04
2022-11-20T10:02:19.070Z,9.07
2022-11-20T10:03:17.063Z,9.08
2022-11-20T10:04:17.061Z,9.08
2022-11-20T10:05:19.069Z,9.09
2022-11-20T10:06:15.073Z,9.13
2022-11-20T10:07:32.599Z,9.12
2022-11-20T10:08:21.818Z,9.11
2022-11-20T10:09:21.441Z,9.14
2022-11-20T10:10:15.067Z,9.11
2022-11-20T10:11:19.077Z,9.07
2022-11-20T10:12:19.064Z,9.08
2022-11-20T10:13:21.066Z,9.13
2022-11-20T10:14:21.071Z,9.12
2022-11-20T10:15:21.087Z,9.10
2022-11-20T10:16:19.069Z,9.08
2022-11-20T10:17:19.065Z,9.11
2022-11-20T10:18:19.065Z,9.11
2022-11-20T10:19:19.317Z,9.16
2022-11-20T10:20:19.073Z,9.13
2022-11-20T10:21:23.072Z,9.15
2022-11-20T10:22:19.070Z,9.17
2022-11-20T10:23:24.270Z,9.20
2022-11-20T10:24:21.051Z,9.24
2022-11-20T10:25:19.067Z,9.27
2022-11-20T10:26:19.074Z,9.24
2022-11-20T10:27:19.067Z,9.29
2022-11-20T10:28:19.063Z,9.30
2022-11-20T10:29:21.086Z,9.36
2022-11-20T10:30:12.067Z,9.42
2022-11-20T10:31:21.069Z,9.48
2022-11-20T10:32:18.068Z,9.53
2022-11-20T10:33:17.068Z,9.50
2022-11-20T10:34:22.690Z,9.50
2022-11-20T10:35:20.071Z,9.53
2022-11-20T10:36:19.069Z,9.56
2022-11-20T10:37:22.065Z,9.58
2022-11-20T10:38:19.066Z,9.58
2022-11-20T10:39:19.492Z,9.61
2022-11-20T10:40:22.077Z,9.65
2022-11-20T10:41:23.071Z,9.72
2022-11-20T10:42:17.069Z,9.77
2022-11-20T10:43:22.066Z,9.79
2022-11-20T10:44:18.065Z,9.77
2022-11-20T10:45:19.069Z,9.80
2022-11-20T10:46:19.077Z,9.83
2022-11-20T10:47:15.070Z,9.76
2022-11-20T10:48:19.067Z,9.69
2022-11-20T10:49:19.332Z,9.70
2022-11-20T10:50:18.996Z,9.71
2022-11-20T10:51:21.046Z,9.67
2022-11-20T10:52:19.068Z,9.67
2022-11-20T10:53:19.070Z,9.65
2022-11-20T10:54:21.072Z,9.62
2022-11-20T10:55:21.082Z,9.66
2022-11-20T10:56:21.070Z,9.68
2022-11-20T10:57:19.069Z,9.69
2022-11-20T10:58:19.066Z,9.63
2022-11-20T10:59:19.172Z,9.64
2022-11-20T11:00:12.078Z,9.71
2022-11-20T11:01:19.361Z,9.76
2022-11-20T11:02:19.083Z,9.73
2022-11-20T11:03:19.076Z,9.78
2022-11-20T11:04:19.071Z,9.74
2022-11-20T11:05:21.069Z,9.76
2022-11-20T11:06:18.071Z,9.81
2022-11-20T11:07:19.141Z,9.89
2022-11-20T11:08:17.077Z,9.95
2022-11-20T11:09:19.071Z,9.98
2022-11-20T11:10:20.073Z,9.97
2022-11-20T11:11:19.186Z,10.02
2022-11-20T11:12:11.072Z,10.11
2022-11-20T11:13:15.073Z,10.11
2022-11-20T11:14:14.074Z,10.11
2022-11-20T11:15:19.074Z,10.10
2022-11-20T11:16:19.082Z,10.16
2022-11-20T11:17:19.073Z,10.19
2022-11-20T11:18:13.071Z,10.23
2022-11-20T11:19:15.077Z,10.26
2022-11-20T11:20:21.081Z,10.29
2022-11-20T11:21:11.080Z,10.25
2022-11-20T11:22:17.070Z,10.21
2022-11-20T11:23:19.072Z,10.21
2022-11-20T11:24:40.966Z,10.30
2022-11-20T11:25:18.099Z,10.32
2022-11-20T11:26:19.072Z,10.38
2022-11-20T11:27:17.306Z,10.44
2022-11-20T11:28:19.073Z,10.48
2022-11-20T11:29:18.081Z,10.54
2022-11-20T11:30:15.079Z,10.53
2022-11-20T11:31:11.072Z,10.54
2022-11-20T11:32:14.075Z,10.58
2022-11-20T11:33:17.074Z,10.57
2022-11-20T11:34:14.072Z,10.59
2022-11-20T11:35:19.075Z,10.61
2022-11-20T11:36:19.076Z,10.61
2022-11-20T11:37:19.075Z,10.57
2022-11-20T11:38:18.072Z,10.54
2022-11-20T11:39:18.088Z,10.55
2022-11-20T11:40:25.056Z,10.53
2022-11-20T11:41:19.190Z,10.56
2022-11-20T11:42:17.077Z,10.53
2022-11-20T11:43:19.075Z,10.55
2022-11-20T11:44:23.075Z,10.55
2022-11-20T11:45:14.101Z,10.53
2022-11-20T11:46:21.078Z,10.58
2022-11-20T11:47:21.077Z,10.62
2022-11-20T11:48:11.060Z,10.64
2022-11-20T11:49:18.058Z,10.65
2022-11-20T11:50:17.068Z,10.69
2022-11-20T11:51:11.062Z,10.67
2022-11-20T11:52:19.058Z,10.65
2022-11-20T11:53:15.055Z,10.65
2022-11-20T11:54:19.058Z,10.68
2022-11-20T11:55:14.065Z,10.63
2022-11-20T11:56:14.057Z,10.64
2022-11-20T11:57:23.101Z,10.65
2022-11-20T11:58:21.057Z,10.65
2022-11-20T11:59:16.056Z,10.58
2022-11-20T12:00:15.060Z,10.59
2022-11-20T12:01:19.064Z,10.60
2022-11-20T12:02:19.149Z,10.62
2022-11-20T12:03:19.055Z,10.59
2022-11-20T12:04:21.054Z,10.67
2022-11-20T12:05:19.058Z,10.77
2022-11-20T12:06:17.065Z,10.80
2022-11-20T12:07:44.800Z,10.85
2022-11-20T12:08:21.050Z,10.92
2022-11-20T12:09:13.055Z,10.88
2022-11-20T12:10:21.070Z,10.89
2022-11-20T12:11:21.060Z,10.89
2022-11-20T12:12:22.061Z,10.86
2022-11-20T12:13:22.056Z,10.89
2022-11-20T12:14:24.056Z,10.92
2022-11-20T12:15:13.054Z,10.88
2022-11-20T12:16:13.061Z,10.94
2022-11-20T12:17:13.063Z,10.94
2022-11-20T12:18:16.060Z,10.96
2022-11-20T12:19:12.058Z,10.89
2022-11-20T12:20:15.060Z,10.88
2022-11-20T12:21:19.059Z,10.80
2022-11-20T12:22:19.061Z,10.83
2022-11-20T12:23:24.063Z,10.87
2022-11-20T12:24:22.066Z,10.83
2022-11-20T12:25:21.061Z,10.80
2022-11-20T12:26:19.062Z,10.84
2022-11-20T12:27:19.060Z,10.88
2022-11-20T12:28:19.065Z,10.88
2022-11-20T12:29:19.062Z,10.85
2022-11-20T12:30:12.088Z,10.80
2022-11-20T12:31:22.060Z,10.74
2022-11-20T12:32:21.056Z,10.76
2022-11-20T12:33:22.061Z,10.71
2022-11-20T12:34:19.067Z,10.75
2022-11-20T12:35:21.077Z,10.79
2022-11-20T12:36:21.063Z,10.75
2022-11-20T12:37:19.061Z,10.75
2022-11-20T12:38:19.059Z,10.76
2022-11-20T12:39:18.061Z,10.79
2022-11-20T12:40:19.069Z,10.81
2022-11-20T12:41:21.072Z,10.78
2022-11-20T12:42:23.059Z,10.78
2022-11-20T12:43:23.058Z,10.78
2022-11-20T12:44:23.068Z,10.79
2022-11-20T12:45:26.065Z,10.80
2022-11-20T12:46:19.064Z,10.80
2022-11-20T12:47:19.065Z,10.79
2022-11-20T12:48:19.061Z,10.74
2022-11-20T12:49:19.063Z,10.76
2022-11-20T12:50:19.064Z,10.77
2022-11-20T12:51:19.066Z,10.74
2022-11-20T12:52:19.076Z,10.78
2022-11-20T12:53:22.069Z,10.76
2022-11-20T12:54:19.066Z,10.75
2022-11-20T12:55:19.065Z,10.78
2022-11-20T12:56:19.066Z,10.78
2022-11-20T12:57:22.067Z,10.81
2022-11-20T12:58:19.066Z,10.79
2022-11-20T12:59:19.062Z,10.81
2022-11-20T13:00:18.064Z,10.81
2022-11-20T13:01:21.101Z,10.79
2022-11-20T13:02:19.067Z,10.82
2022-11-20T13:03:22.065Z,10.81
2022-11-20T13:04:19.066Z,10.82
2022-11-20T13:05:19.066Z,10.83
2022-11-20T13:06:20.078Z,10.82
2022-11-20T13:07:13.092Z,10.80
2022-11-20T13:08:19.065Z,10.81
2022-11-20T13:09:16.070Z,10.82
2022-11-20T13:10:19.069Z,10.72
2022-11-20T13:11:24.068Z,10.73
2022-11-20T13:12:17.065Z,10.76
2022-11-20T13:13:22.067Z,10.66
2022-11-20T13:14:19.067Z,10.61